createdAt,value
2023-02-10T00:00:34.478Z,19.30
2023-02-10T00:03:01.093Z,18.67
2023-02-10T00:05:28.324Z,18.40
2023-02-10T00:07:54.896Z,19.13
2023-02-10T00:10:21.503Z,18.80
2023-02-10T00:12:48.071Z,19.07
2023-02-10T00:15:14.848Z,19.03
2023-02-10T00:17:41.414Z,19.63
2023-02-10T00:20:09.063Z,18.60
2023-02-10T00:22:35.843Z,19.00
2023-02-10T00:25:02.448Z,19.50
2023-02-10T00:27:29.037Z,18.30
2023-02-10T00:29:55.650Z,18.77
2023-02-10T00:32:22.241Z,18.90
2023-02-10T00:34:48.973Z,19.10
2023-02-10T00:37:15.596Z,19.93
2023-02-10T00:39:42.215Z,20.47
2023-02-10T00:42:08.821Z,19.43
2023-02-10T00:44:35.346Z,20.13
2023-02-10T00:47:01.982Z,20.90
2023-02-10T00:49:28.550Z,19.33
2023-02-10T00:51:55.116Z,20.90
2023-02-10T00:54:21.699Z,20.57
2023-02-10T00:56:48.218Z,20.87
2023-02-10T00:59:14.998Z,21.30
2023-02-10T01:01:41.677Z,21.20
2023-02-10T01:04:08.221Z,22.27
2023-02-10T01:06:34.795Z,22.30
2023-02-10T01:09:01.438Z,22.10
2023-02-10T01:11:28.053Z,21.73
2023-02-10T01:13:54.594Z,22.07
2023-02-10T01:16:21.827Z,23.07
2023-02-10T01:18:48.482Z,22.77
2023-02-10T01:21:18.036Z,23.03
2023-02-10T01:23:45.665Z,22.73
2023-02-10T01:26:13.410Z,23.70
2023-02-10T01:28:40.970Z,23.80
2023-02-10T01:31:12.464Z,22.77
2023-02-10T01:33:39.648Z,23.20
2023-02-10T01:36:08.720Z,23.87
2023-02-10T01:38:35.372Z,23.73
2023-02-10T01:41:03.047Z,23.57
2023-02-10T01:43:29.982Z,23.53
2023-02-10T01:45:56.760Z,22.73
2023-02-10T01:48:25.427Z,24.00
2023-02-10T01:51:01.316Z,22.53
2023-02-10T01:53:29.380Z,23.37
2023-02-10T01:56:00.248Z,22.93
2023-02-10T01:58:30.387Z,22.57
2023-02-10T02:00:57.045Z,22.90
2023-02-10T02:03:23.654Z,22.77
2023-02-10T02:05:50.296Z,23.30
2023-02-10T02:08:18.321Z,23.53
2023-02-10T02:11:07.902Z,23.13
2023-02-10T02:13:43.208Z,24.10
2023-02-10T02:16:28.483Z,23.87
2023-02-10T02:19:10.030Z,22.93
2023-02-10T02:22:23.966Z,25.80
2023-02-10T02:25:20.816Z,24.70
2023-02-10T02:28:12.251Z,25.00
2023-02-10T02:30:41.858Z,24.77
2023-02-10T02:33:26.684Z,23.13
2023-02-10T02:36:12.993Z,22.20
2023-02-10T02:38:41.441Z,24.10
2023-02-10T02:41:09.520Z,22.30
2023-02-10T02:43:37.599Z,24.67
2023-02-10T02:46:29.067Z,23.43
2023-02-10T02:49:27.421Z,24.13
2023-02-10T02:52:03.507Z,23.60
2023-02-10T02:54:46.537Z,23.63
2023-02-10T02:57:34.098Z,22.20
2023-02-10T03:00:11.564Z,24.83
2023-02-10T03:02:42.318Z,24.27
2023-02-10T03:05:10.472Z,23.80
2023-02-10T03:07:37.366Z,27.00
2023-02-10T03:10:05.209Z,26.13
2023-02-10T03:12:31.902Z,28.57
2023-02-10T03:14:58.469Z,28.47
2023-02-10T03:17:25.000Z,29.20
2023-02-10T03:19:51.697Z,31.07
2023-02-10T03:22:18.253Z,30.53
2023-02-10T03:24:44.938Z,31.47
2023-02-10T03:27:11.491Z,31.77
2023-02-10T03:29:38.042Z,33.23
2023-02-10T03:32:06.338Z,33.73
2023-02-10T03:34:33.082Z,33.83
2023-02-10T03:36:59.804Z,33.93
2023-02-10T03:39:26.570Z,35.00
2023-02-10T03:41:54.393Z,34.33
2023-02-10T03:44:21.058Z,34.57
2023-02-10T03:46:47.618Z,35.10
2023-02-10T03:49:14.329Z,34.53
2023-02-10T03:51:41.107Z,34.03
2023-02-10T03:54:07.678Z,34.00
2023-02-10T03:56:34.394Z,34.57
2023-02-10T03:59:02.512Z,33.70
2023-02-10T04:01:29.204Z,34.30
2023-02-10T04:03:55.885Z,31.00
2023-02-10T04:06:22.743Z,37.53
2023-02-10T04:08:49.660Z,38.47
2023-02-10T04:11:16.351Z,41.07
2023-02-10T04:13:42.902Z,37.60
2023-02-10T04:16:13.670Z,44.27
2023-02-10T04:18:41.104Z,40.27
2023-02-10T04:21:09.634Z,44.90
2023-02-10T04:23:37.416Z,43.63
2023-02-10T04:26:04.664Z,43.30
2023-02-10T04:28:31.733Z,49.63
2023-02-10T04:31:00.631Z,43.63
2023-02-10T04:33:27.998Z,43.40
2023-02-10T04:35:55.736Z,42.43
2023-02-10T04:38:22.533Z,48.70
2023-02-10T04:40:49.102Z,49.27
2023-02-10T04:43:16.247Z,45.57
2023-02-10T04:45:43.106Z,41.07
2023-02-10T04:48:10.039Z,43.87
2023-02-10T04:50:39.650Z,47.80
2023-02-10T04:53:10.763Z,45.13
2023-02-10T04:55:37.304Z,45.97
2023-02-10T04:58:04.079Z,50.23
2023-02-10T05:00:30.786Z,47.23
2023-02-10T05:02:58.267Z,46.57
2023-02-10T05:05:26.451Z,49.07
2023-02-10T05:07:53.649Z,47.30
2023-02-10T05:10:20.975Z,47.27
2023-02-10T05:12:47.653Z,55.17
2023-02-10T05:15:14.488Z,46.10
2023-02-10T05:17:41.799Z,48.33
2023-02-10T05:20:09.303Z,47.77
2023-02-10T05:22:37.765Z,52.37
2023-02-10T05:25:04.762Z,56.23
2023-02-10T05:27:31.443Z,46.17
2023-02-10T05:29:57.968Z,48.80
2023-02-10T05:32:24.732Z,50.43
2023-02-10T05:34:51.307Z,53.73
2023-02-10T05:37:18.006Z,51.27
2023-02-10T05:39:44.517Z,40.90
2023-02-10T05:42:11.063Z,53.70
2023-02-10T05:44:37.783Z,61.50
2023-02-10T05:47:04.494Z,50.37
2023-02-10T05:49:31.888Z,63.53
2023-02-10T05:51:58.520Z,52.03
2023-02-10T05:54:25.167Z,49.47
2023-02-10T05:56:52.901Z,39.73
2023-02-10T05:59:19.841Z,61.13
2023-02-10T06:01:46.649Z,47.17
2023-02-10T06:04:13.344Z,35.57
2023-02-10T06:06:40.026Z,40.40
2023-02-10T06:09:06.987Z,41.67
2023-02-10T06:11:33.712Z,46.67
2023-02-10T06:14:00.660Z,33.47
2023-02-10T06:16:27.335Z,48.60
2023-02-10T06:18:54.014Z,46.00
2023-02-10T06:21:21.756Z,33.83
2023-02-10T06:23:48.344Z,55.40
2023-02-10T06:26:14.972Z,49.43
2023-02-10T06:28:41.623Z,31.90
2023-02-10T06:31:11.282Z,36.87
2023-02-10T06:33:37.929Z,50.27
2023-02-10T06:36:07.063Z,37.93
2023-02-10T06:38:34.630Z,31.57
2023-02-10T06:41:01.252Z,38.73
2023-02-10T06:43:27.972Z,40.97
2023-02-10T06:45:54.589Z,39.27
2023-02-10T06:48:21.288Z,47.10
2023-02-10T06:50:47.868Z,40.53
2023-02-10T06:53:14.582Z,47.30
2023-02-10T06:55:41.109Z,31.53
2023-02-10T06:58:07.912Z,51.53
2023-02-10T07:00:34.638Z,44.47
2023-02-10T07:03:01.192Z,54.63
2023-02-10T07:05:27.830Z,42.63
2023-02-10T07:07:54.991Z,44.73
2023-02-10T07:10:22.612Z,24.77
2023-02-10T07:12:49.324Z,40.27
2023-02-10T07:15:16.096Z,34.47
2023-02-10T07:17:43.925Z,38.13
2023-02-10T07:20:12.368Z,52.10
2023-02-10T07:22:38.915Z,48.67
2023-02-10T07:25:05.858Z,48.70
2023-02-10T07:27:32.481Z,32.00
2023-02-10T07:29:59.018Z,32.57
2023-02-10T07:32:25.778Z,36.50
2023-02-10T07:34:52.488Z,37.57
2023-02-10T07:37:19.225Z,37.07
2023-02-10T07:39:45.787Z,39.40
2023-02-10T07:42:12.419Z,29.93
2023-02-10T07:44:40.688Z,44.07
2023-02-10T07:47:07.423Z,25.97
2023-02-10T07:49:34.075Z,42.90
2023-02-10T07:52:00.663Z,36.53
2023-02-10T07:54:27.393Z,37.77
2023-02-10T07:56:53.933Z,26.90
2023-02-10T07:59:20.505Z,45.67
2023-02-10T08:01:47.245Z,39.27
2023-02-10T08:04:14.304Z,39.50
2023-02-10T08:06:41.040Z,39.23
2023-02-10T08:09:07.868Z,46.57
2023-02-10T08:11:34.526Z,37.37
2023-02-10T08:14:02.539Z,46.67
2023-02-10T08:16:30.651Z,32.47
2023-02-10T08:18:59.287Z,34.67
2023-02-10T08:21:27.552Z,37.57
2023-02-10T08:23:56.056Z,42.00
2023-02-10T08:26:23.505Z,35.30
2023-02-10T08:28:51.188Z,41.17
2023-02-10T08:31:18.647Z,40.70
2023-02-10T08:33:46.733Z,45.27
2023-02-10T08:36:16.423Z,34.93
2023-02-10T08:38:43.600Z,39.60
2023-02-10T08:41:10.339Z,33.07
2023-02-10T08:43:37.160Z,42.73
2023-02-10T08:46:04.598Z,39.33
2023-02-10T08:48:31.875Z,38.57
2023-02-10T08:50:59.427Z,34.33
2023-02-10T08:53:26.012Z,44.33
2023-02-10T08:56:00.753Z,39.93
2023-02-10T08:58:28.067Z,46.93
2023-02-10T09:00:54.776Z,43.93
2023-02-10T09:03:22.286Z,43.53
2023-02-10T09:05:50.078Z,41.03
2023-02-10T09:08:18.336Z,41.90
2023-02-10T09:10:46.877Z,43.73
2023-02-10T09:13:13.823Z,44.13
2023-02-10T09:15:42.507Z,45.13
2023-02-10T09:18:10.243Z,44.13
2023-02-10T09:20:37.285Z,45.83
2023-02-10T09:23:04.351Z,47.33
2023-02-10T09:25:31.122Z,49.13
2023-02-10T09:27:58.540Z,48.13
2023-02-10T09:30:26.557Z,46.07
2023-02-10T09:32:53.297Z,48.60
2023-02-10T09:35:20.228Z,47.73
2023-02-10T09:37:48.118Z,46.03
2023-02-10T09:40:23.553Z,46.47
2023-02-10T09:42:56.968Z,47.90
2023-02-10T09:45:27.950Z,45.27
2023-02-10T09:48:06.248Z,49.07
2023-02-10T09:50:44.609Z,42.00
2023-02-10T09:53:22.166Z,45.40
2023-02-10T09:55:58.367Z,46.50
2023-02-10T09:58:43.447Z,45.00
2023-02-10T10:01:10.045Z,38.23
2023-02-10T10:03:49.722Z,43.80
2023-02-10T10:06:34.472Z,41.63
2023-02-10T10:09:09.022Z,40.33
2023-02-10T10:11:44.680Z,41.53
2023-02-10T10:14:39.315Z,45.63
2023-02-10T10:17:27.620Z,42.07
2023-02-10T10:20:18.618Z,43.70
2023-02-10T10:23:06.671Z,41.40
2023-02-10T10:26:01.232Z,42.90
2023-02-10T10:28:42.686Z,43.73
2023-02-10T10:31:31.281Z,41.80
2023-02-10T10:34:04.322Z,42.20
2023-02-10T10:36:35.647Z,42.70
2023-02-10T10:39:14.427Z,40.83
2023-02-10T10:41:42.913Z,40.40
2023-02-10T10:44:13.078Z,41.17
2023-02-10T10:46:58.560Z,40.67
2023-02-10T10:49:25.441Z,41.33
2023-02-10T10:51:52.053Z,39.83
2023-02-10T10:54:22.301Z,40.47
2023-02-10T10:56:54.036Z,39.53
2023-02-10T10:59:42.220Z,40.37
2023-02-10T11:02:13.747Z,40.00
2023-02-10T11:04:43.410Z,40.67
2023-02-10T11:07:12.414Z,39.33
2023-02-10T11:09:49.585Z,39.97
2023-02-10T11:12:28.133Z,37.17
2023-02-10T11:14:55.867Z,36.73
2023-02-10T11:17:37.384Z,38.33
2023-02-10T11:20:21.809Z,37.97
2023-02-10T11:22:57.449Z,38.30
2023-02-10T11:25:35.001Z,37.07
2023-02-10T11:28:03.751Z,38.07
2023-02-10T11:30:32.270Z,37.10
2023-02-10T11:33:01.087Z,34.60
2023-02-10T11:35:29.115Z,35.40
2023-02-10T11:38:03.528Z,36.60
2023-02-10T11:40:34.200Z,35.73
2023-02-10T11:43:02.172Z,34.60
2023-02-10T11:45:31.688Z,34.40
2023-02-10T11:48:02.691Z,34.23
2023-02-10T11:50:34.835Z,33.67
2023-02-10T11:53:02.135Z,32.30
2023-02-10T11:56:02.014Z,32.70
2023-02-10T11:58:57.330Z,32.23
2023-02-10T12:01:50.465Z,30.47
2023-02-10T12:04:24.157Z,31.00
2023-02-10T12:07:22.927Z,30.10
2023-02-10T12:09:57.376Z,32.10
2023-02-10T12:12:50.215Z,28.43
2023-02-10T12:15:22.788Z,28.77
2023-02-10T12:18:10.178Z,29.13
2023-02-10T12:21:04.663Z,27.85
2023-02-10T12:24:19.321Z,26.60
2023-02-10T12:26:50.605Z,26.77
2023-02-10T12:29:39.995Z,27.77
2023-02-10T12:32:37.374Z,27.45
2023-02-10T12:35:18.925Z,26.63
2023-02-10T12:37:54.259Z,26.23
2023-02-10T12:40:43.675Z,24.88
2023-02-10T12:43:32.113Z,23.83
2023-02-10T12:46:33.990Z,21.95
2023-02-10T12:49:15.762Z,22.10
2023-02-10T12:51:54.307Z,22.03
2023-02-10T12:54:43.591Z,22.15
2023-02-10T12:57:17.506Z,22.50
2023-02-10T12:59:48.681Z,21.88
2023-02-10T13:02:37.370Z,19.43
2023-02-10T13:05:13.596Z,18.67
2023-02-10T13:08:01.448Z,18.95
2023-02-10T13:10:39.635Z,18.70
2023-02-10T13:13:12.535Z,19.10
2023-02-10T13:15:42.880Z,19.40
2023-02-10T13:18:31.292Z,18.13
2023-02-10T13:21:19.329Z,17.15
2023-02-10T13:23:52.334Z,17.00
2023-02-10T13:26:28.643Z,16.83
2023-02-10T13:29:13.858Z,17.30
2023-02-10T13:31:59.874Z,15.52
2023-02-10T13:34:30.934Z,17.23
2023-02-10T13:37:12.057Z,16.58
2023-02-10T13:39:39.661Z,15.25
2023-02-10T13:42:23.725Z,15.07
2023-02-10T13:45:04.857Z,15.27
2023-02-10T13:47:37.128Z,13.65
2023-02-10T13:50:15.627Z,13.32
2023-02-10T13:52:58.631Z,13.15
2023-02-10T13:55:27.300Z,12.65
2023-02-10T13:57:59.999Z,13.65
2023-02-10T14:00:29.586Z,13.35
2023-02-10T14:03:00.720Z,12.75
2023-02-10T14:05:33.763Z,12.25
2023-02-10T14:08:01.130Z,11.93
2023-02-10T14:10:32.555Z,12.60
2023-02-10T14:13:05.942Z,12.45
2023-02-10T14:15:39.399Z,11.40
2023-02-10T14:18:22.785Z,12.30
2023-02-10T14:21:01.143Z,12.38
2023-02-10T14:23:30.159Z,11.73
2023-02-10T14:25:59.378Z,12.23
2023-02-10T14:28:35.886Z,15.98
2023-02-10T14:31:37.098Z,18.15
2023-02-10T14:34:06.814Z,22.13
2023-02-10T14:36:33.386Z,20.90
2023-02-10T14:39:02.013Z,21.73
2023-02-10T14:41:31.558Z,21.85
2023-02-10T14:43:58.202Z,21.70
2023-02-10T14:46:30.649Z,22.90
2023-02-10T14:49:20.334Z,23.60
2023-02-10T14:51:47.787Z,23.33
2023-02-10T14:54:19.073Z,22.02
2023-02-10T14:56:51.660Z,22.92
2023-02-10T14:59:36.144Z,24.52
2023-02-10T15:02:17.683Z,21.98
2023-02-10T15:04:45.983Z,21.02
2023-02-10T15:07:23.459Z,22.08
2023-02-10T15:09:50.305Z,20.77
2023-02-10T15:12:22.287Z,19.63
2023-02-10T15:15:01.564Z,17.60
2023-02-10T15:17:43.326Z,20.05
2023-02-10T15:20:28.898Z,19.50
2023-02-10T15:23:02.556Z,20.25
2023-02-10T15:25:33.201Z,20.38
2023-02-10T15:28:11.620Z,19.77
2023-02-10T15:31:19.451Z,20.92
2023-02-10T15:33:56.629Z,17.80
2023-02-10T15:36:30.671Z,16.30
2023-02-10T15:38:57.200Z,17.33
2023-02-10T15:41:35.103Z,17.80
2023-02-10T15:44:21.841Z,17.65
2023-02-10T15:47:16.225Z,17.02
2023-02-10T15:50:03.130Z,16.27
2023-02-10T15:52:35.577Z,16.35
2023-02-10T15:55:06.974Z,16.20
2023-02-10T15:57:33.580Z,16.40
2023-02-10T16:00:00.232Z,16.13
2023-02-10T16:02:27.286Z,15.68
2023-02-10T16:04:53.984Z,16.10
2023-02-10T16:07:27.497Z,16.50
2023-02-10T16:09:55.642Z,16.40
2023-02-10T16:12:22.981Z,17.10
2023-02-10T16:14:49.667Z,16.97
2023-02-10T16:17:28.556Z,18.07
2023-02-10T16:19:55.247Z,18.47
2023-02-10T16:22:22.109Z,19.23
2023-02-10T16:24:49.420Z,18.27
2023-02-10T16:27:16.623Z,19.00
2023-02-10T16:29:44.423Z,18.73
2023-02-10T16:32:12.082Z,20.43
2023-02-10T16:34:39.084Z,19.90
2023-02-10T16:37:05.921Z,20.20
2023-02-10T16:39:32.533Z,20.07
2023-02-10T16:41:59.176Z,20.93
2023-02-10T16:44:25.899Z,20.60
2023-02-10T16:46:52.816Z,21.33
2023-02-10T16:49:19.982Z,21.20
2023-02-10T16:51:47.568Z,22.70
2023-02-10T16:54:14.353Z,21.70
2023-02-10T16:56:42.660Z,22.43
2023-02-10T16:59:14.314Z,22.37
2023-02-10T17:01:40.906Z,23.33
2023-02-10T17:04:07.577Z,22.33
2023-02-10T17:06:39.688Z,22.40
2023-02-10T17:09:06.429Z,23.07
2023-02-10T17:11:32.958Z,24.00
2023-02-10T17:13:59.527Z,22.90
2023-02-10T17:16:33.057Z,24.13
2023-02-10T17:19:00.500Z,23.50
2023-02-10T17:21:27.250Z,22.57
2023-02-10T17:23:53.803Z,23.47
2023-02-10T17:26:20.425Z,24.73
2023-02-10T17:28:47.093Z,24.80
2023-02-10T17:31:16.772Z,26.20
2023-02-10T17:33:49.352Z,22.50
2023-02-10T17:36:25.124Z,25.03
2023-02-10T17:38:53.046Z,23.63
2023-02-10T17:41:26.721Z,25.20
2023-02-10T17:43:55.745Z,24.73
2023-02-10T17:46:23.088Z,26.40
2023-02-10T17:48:49.984Z,26.13
2023-02-10T17:51:19.673Z,25.17
2023-02-10T17:53:49.231Z,27.23
2023-02-10T17:56:17.691Z,27.67
2023-02-10T17:58:44.599Z,26.87
2023-02-10T18:01:28.995Z,27.37
2023-02-10T18:03:56.263Z,26.67
2023-02-10T18:06:23.143Z,27.63
2023-02-10T18:08:50.168Z,27.30
2023-02-10T18:11:17.810Z,27.80
2023-02-10T18:13:45.610Z,26.30
2023-02-10T18:16:14.022Z,26.90
2023-02-10T18:18:40.602Z,27.67
2023-02-10T18:21:07.324Z,28.10
2023-02-10T18:23:34.125Z,27.60
2023-02-10T18:26:00.852Z,27.63
2023-02-10T18:28:27.505Z,27.50
2023-02-10T18:30:54.159Z,24.43
2023-02-10T18:33:20.747Z,26.87
2023-02-10T18:35:47.504Z,24.27
2023-02-10T18:38:14.234Z,26.83
2023-02-10T18:40:42.544Z,27.30
2023-02-10T18:43:11.002Z,25.90
2023-02-10T18:45:45.066Z,26.53
2023-02-10T18:48:12.623Z,27.40
2023-02-10T18:50:39.557Z,27.27
2023-02-10T18:53:06.766Z,26.83
2023-02-10T18:55:34.142Z,28.07
2023-02-10T18:58:03.189Z,26.37
2023-02-10T19:00:31.061Z,26.47
2023-02-10T19:02:57.716Z,26.53
2023-02-10T19:05:24.675Z,26.60
2023-02-10T19:07:53.635Z,27.37
2023-02-10T19:10:23.983Z,26.53
2023-02-10T19:12:51.041Z,26.73
2023-02-10T19:15:17.752Z,25.30
2023-02-10T19:17:44.287Z,24.97
2023-02-10T19:20:11.009Z,26.23
2023-02-10T19:22:38.190Z,25.67
2023-02-10T19:25:06.935Z,25.80
2023-02-10T19:27:33.782Z,25.77
2023-02-10T19:30:00.392Z,25.97
2023-02-10T19:32:27.100Z,25.53
2023-02-10T19:34:53.706Z,25.73
2023-02-10T19:37:22.214Z,25.63
2023-02-10T19:39:48.798Z,26.40
2023-02-10T19:42:15.409Z,26.13
2023-02-10T19:44:41.977Z,26.27
2023-02-10T19:47:08.566Z,26.20
2023-02-10T19:49:35.152Z,27.33
2023-02-10T19:52:01.659Z,26.90
2023-02-10T19:54:30.500Z,27.73
2023-02-10T19:56:57.694Z,26.97
2023-02-10T19:59:24.221Z,27.20
2023-02-10T20:01:50.918Z,26.93
2023-02-10T20:04:17.528Z,27.53
2023-02-10T20:06:47.169Z,26.93
2023-02-10T20:09:14.302Z,27.20
2023-02-10T20:11:41.738Z,26.80
2023-02-10T20:14:10.692Z,27.93
2023-02-10T20:16:45.070Z,27.10
2023-02-10T20:19:14.341Z,26.40
2023-02-10T20:21:43.801Z,28.13
2023-02-10T20:24:10.496Z,27.93
2023-02-10T20:26:38.992Z,27.17
2023-02-10T20:29:06.480Z,26.53
2023-02-10T20:31:33.606Z,27.27
2023-02-10T20:34:00.895Z,27.53
2023-02-10T20:36:27.581Z,27.07
2023-02-10T20:38:54.549Z,28.03
2023-02-10T20:41:22.417Z,27.70
2023-02-10T20:43:50.521Z,27.53
2023-02-10T20:46:18.397Z,26.77
2023-02-10T20:48:47.204Z,27.93
2023-02-10T20:51:15.331Z,26.87
2023-02-10T20:53:42.724Z,27.57
2023-02-10T20:56:14.226Z,27.27
2023-02-10T20:58:40.999Z,26.43
2023-02-10T21:01:10.579Z,26.63
2023-02-10T21:03:39.442Z,27.97
2023-02-10T21:06:13.580Z,27.73
2023-02-10T21:08:41.200Z,26.43
2023-02-10T21:11:10.204Z,27.97
2023-02-10T21:13:39.102Z,27.73
2023-02-10T21:16:07.205Z,27.73
2023-02-10T21:18:33.786Z,28.40
2023-02-10T21:21:02.421Z,28.13
2023-02-10T21:23:29.821Z,28.27
2023-02-10T21:25:57.053Z,28.23
2023-02-10T21:28:23.882Z,28.37
2023-02-10T21:30:50.737Z,28.33
2023-02-10T21:33:19.339Z,28.53
2023-02-10T21:35:48.003Z,26.37
2023-02-10T21:38:15.646Z,27.97
2023-02-10T21:40:42.613Z,28.30
2023-02-10T21:43:09.877Z,28.47
2023-02-10T21:45:37.042Z,28.80
2023-02-10T21:48:05.544Z,27.63
2023-02-10T21:50:32.582Z,28.43
2023-02-10T21:52:59.223Z,28.40
2023-02-10T21:55:25.832Z,29.07
2023-02-10T21:57:52.357Z,30.03
2023-02-10T22:00:19.160Z,28.83
2023-02-10T22:02:45.855Z,27.63
2023-02-10T22:05:12.476Z,30.07
2023-02-10T22:07:39.108Z,29.40
2023-02-10T22:10:06.204Z,27.67
2023-02-10T22:12:32.927Z,28.23
2023-02-10T22:14:59.502Z,28.23
2023-02-10T22:17:26.390Z,27.63
2023-02-10T22:19:52.969Z,27.57
2023-02-10T22:22:19.550Z,27.80
2023-02-10T22:24:46.147Z,29.30
2023-02-10T22:27:12.775Z,27.43
2023-02-10T22:29:39.413Z,29.07
2023-02-10T22:32:06.013Z,28.90
2023-02-10T22:34:33.134Z,27.67
2023-02-10T22:37:02.258Z,28.03
2023-02-10T22:39:28.835Z,27.53
2023-02-10T22:41:55.414Z,28.03
2023-02-10T22:44:22.025Z,28.70
2023-02-10T22:46:48.654Z,28.07
2023-02-10T22:49:15.191Z,29.83
2023-02-10T22:51:42.857Z,29.13
2023-02-10T22:54:13.072Z,29.23
2023-02-10T22:56:41.495Z,29.90
2023-02-10T22:59:09.033Z,29.93
2023-02-10T23:01:41.341Z,28.67
2023-02-10T23:04:11.860Z,28.80
2023-02-10T23:06:41.497Z,29.00
2023-02-10T23:09:09.431Z,30.10
2023-02-10T23:11:40.246Z,29.40
2023-02-10T23:14:06.785Z,29.83
2023-02-10T23:16:33.438Z,29.77
2023-02-10T23:19:00.419Z,28.37
2023-02-10T23:21:27.942Z,29.70
2023-02-10T23:23:55.753Z,28.63
2023-02-10T23:26:34.152Z,30.00
2023-02-10T23:29:07.328Z,30.97
2023-02-10T23:31:34.155Z,30.63
2023-02-10T23:34:02.197Z,28.70
2023-02-10T23:36:29.189Z,29.50
2023-02-10T23:38:55.839Z,30.37
2023-02-10T23:41:22.978Z,29.03
2023-02-10T23:43:49.615Z,29.00
2023-02-10T23:46:16.243Z,28.27
2023-02-10T23:48:43.308Z,26.83
2023-02-10T23:51:14.793Z,26.40
2023-02-10T23:53:41.844Z,29.40
2023-02-10T23:56:08.813Z,30.37
2023-02-10T23:58:35.926Z,28.50
